sensor_id;sensor_type;location;lat;lon;timestamp;P1;durP1;ratioP1;P2;durP2;ratioP2
3085;SDS011;52812;48.960;9.108;2023-02-28T00:00:04;6.10;;;3.70;;
3085;SDS011;52812;48.960;9.108;2023-02-28T00:02:35;7.32;;;4.32;;
3085;SDS011;52812;48.960;9.108;2023-02-28T00:05:01;6.53;;;4.22;;
3085;SDS011;52812;48.960;9.108;2023-02-28T00:07:28;4.60;;;3.95;;
3085;SDS011;52812;48.960;9.108;2023-02-28T00:09:54;7.32;;;4.50;;
3085;SDS011;52812;48.960;9.108;2023-02-28T00:12:19;7.00;;;3.90;;
3085;SDS011;52812;48.960;9.108;2023-02-28T00:14:45;5.77;;;4.17;;
3085;SDS011;52812;48.960;9.108;2023-02-28T00:17:10;6.53;;;4.60;;
3085;SDS011;52812;48.960;9.108;2023-02-28T00:19:36;8.30;;;4.67;;
3085;SDS011;52812;48.960;9.108;2023-02-28T00:22:02;7.83;;;4.13;;
3085;SDS011;52812;48.960;9.108;2023-02-28T00:24:27;8.00;;;4.37;;
3085;SDS011;52812;48.960;9.108;2023-02-28T00:26:53;6.60;;;4.77;;
3085;SDS011;52812;48.960;9.108;2023-02-28T00:29:18;5.10;;;4.27;;
3085;SDS011;52812;48.960;9.108;2023-02-28T00:31:44;7.43;;;5.00;;
3085;SDS011;52812;48.960;9.108;2023-02-28T00:34:09;6.10;;;4.37;;
3085;SDS011;52812;48.960;9.108;2023-02-28T00:36:35;7.13;;;4.73;;
3085;SDS011;52812;48.960;9.108;2023-02-28T00:39:00;6.03;;;4.37;;
3085;SDS011;52812;48.960;9.108;2023-02-28T00:41:26;8.50;;;4.23;;
3085;SDS011;52812;48.960;9.108;2023-02-28T00:43:52;5.97;;;4.10;;
3085;SDS011;52812;48.960;9.108;2023-02-28T00:46:17;7.60;;;4.93;;
3085;SDS011;52812;48.960;9.108;2023-02-28T00:48:43;7.37;;;4.53;;
3085;SDS011;52812;48.960;9.108;2023-02-28T00:51:08;5.90;;;4.17;;
3085;SDS011;52812;48.960;9.108;2023-02-28T00:53:34;7.13;;;4.13;;
3085;SDS011;52812;48.960;9.108;2023-02-28T00:56:00;5.87;;;4.23;;
3085;SDS011;52812;48.960;9.108;2023-02-28T00:58:26;5.53;;;4.10;;
3085;SDS011;52812;48.960;9.108;2023-02-28T01:00:51;6.80;;;4.37;;
3085;SDS011;52812;48.960;9.108;2023-02-28T01:03:18;7.32;;;4.47;;
3085;SDS011;52812;48.960;9.108;2023-02-28T01:05:45;9.60;;;4.35;;
3085;SDS011;52812;48.960;9.108;2023-02-28T01:08:11;6.87;;;4.20;;
3085;SDS011;52812;48.960;9.108;2023-02-28T01:10:38;7.15;;;4.47;;
3085;SDS011;52812;48.960;9.108;2023-02-28T01:13:04;8.60;;;4.10;;
3085;SDS011;52812;48.960;9.108;2023-02-28T01:15:29;12.10;;;4.10;;
3085;SDS011;52812;48.960;9.108;2023-02-28T01:17:57;9.27;;;4.97;;
3085;SDS011;52812;48.960;9.108;2023-02-28T01:20:23;8.03;;;5.10;;
3085;SDS011;52812;48.960;9.108;2023-02-28T01:22:48;5.60;;;4.40;;
3085;SDS011;52812;48.960;9.108;2023-02-28T01:25:14;6.73;;;4.63;;
3085;SDS011;52812;48.960;9.108;2023-02-28T01:27:40;7.70;;;4.57;;
3085;SDS011;52812;48.960;9.108;2023-02-28T01:30:06;6.23;;;4.20;;
3085;SDS011;52812;48.960;9.108;2023-02-28T01:32:33;6.20;;;4.55;;
3085;SDS011;52812;48.960;9.108;2023-02-28T01:35:00;4.88;;;4.32;;
3085;SDS011;52812;48.960;9.108;2023-02-28T01:37:25;6.70;;;4.20;;
3085;SDS011;52812;48.960;9.108;2023-02-28T01:39:52;7.93;;;4.47;;
3085;SDS011;52812;48.960;9.108;2023-02-28T01:42:17;7.27;;;4.23;;
3085;SDS011;52812;48.960;9.108;2023-02-28T01:44:57;7.20;;;4.80;;
3085;SDS011;52812;48.960;9.108;2023-02-28T01:47:30;7.18;;;4.13;;
3085;SDS011;52812;48.960;9.108;2023-02-28T01:49:58;5.75;;;4.47;;
3085;SDS011;52812;48.960;9.108;2023-02-28T01:52:26;5.95;;;4.68;;
3085;SDS011;52812;48.960;9.108;2023-02-28T01:54:54;5.18;;;3.72;;
3085;SDS011;52812;48.960;9.108;2023-02-28T01:57:23;8.52;;;4.60;;
3085;SDS011;52812;48.960;9.108;2023-02-28T01:59:59;6.22;;;4.45;;
3085;SDS011;52812;48.960;9.108;2023-02-28T02:02:29;5.93;;;4.65;;
3085;SDS011;52812;48.960;9.108;2023-02-28T02:05:06;10.15;;;5.10;;
3085;SDS011;52812;48.960;9.108;2023-02-28T02:07:35;7.70;;;5.10;;
3085;SDS011;52812;48.960;9.108;2023-02-28T02:16:00;5.25;;;3.80;;
3085;SDS011;52812;48.960;9.108;2023-02-28T02:34:25;7.38;;;4.90;;
3085;SDS011;52812;48.960;9.108;2023-02-28T02:40:04;4.53;;;3.50;;
3085;SDS011;52812;48.960;9.108;2023-02-28T02:42:52;7.13;;;4.60;;
3085;SDS011;52812;48.960;9.108;2023-02-28T02:48:11;7.55;;;4.97;;
3085;SDS011;52812;48.960;9.108;2023-02-28T02:50:42;5.88;;;4.05;;
3085;SDS011;52812;48.960;9.108;2023-02-28T02:53:30;8.60;;;5.30;;
3085;SDS011;52812;48.960;9.108;2023-02-28T02:56:00;8.57;;;5.30;;
3085;SDS011;52812;48.960;9.108;2023-02-28T02:58:29;7.10;;;4.40;;
3085;SDS011;52812;48.960;9.108;2023-02-28T03:00:59;7.35;;;4.50;;
3085;SDS011;52812;48.960;9.108;2023-02-28T03:03:27;7.43;;;5.20;;
3085;SDS011;52812;48.960;9.108;2023-02-28T03:05:56;6.80;;;4.80;;
3085;SDS011;52812;48.960;9.108;2023-02-28T03:08:24;7.22;;;4.13;;
3085;SDS011;52812;48.960;9.108;2023-02-28T03:10:51;7.10;;;4.50;;
3085;SDS011;52812;48.960;9.108;2023-02-28T03:21:42;6.95;;;4.88;;
3085;SDS011;52812;48.960;9.108;2023-02-28T03:24:27;9.38;;;4.70;;
3085;SDS011;52812;48.960;9.108;2023-02-28T03:26:55;7.63;;;4.95;;
3085;SDS011;52812;48.960;9.108;2023-02-28T03:29:28;5.70;;;3.70;;
3085;SDS011;52812;48.960;9.108;2023-02-28T03:32:24;7.25;;;4.18;;
3085;SDS011;52812;48.960;9.108;2023-02-28T03:35:09;7.90;;;4.25;;
3085;SDS011;52812;48.960;9.108;2023-02-28T03:37:47;5.82;;;4.32;;
3085;SDS011;52812;48.960;9.108;2023-02-28T03:40:17;11.73;;;4.65;;
3085;SDS011;52812;48.960;9.108;2023-02-28T03:42:47;5.30;;;4.22;;
3085;SDS011;52812;48.960;9.108;2023-02-28T03:45:28;6.85;;;4.40;;
3085;SDS011;52812;48.960;9.108;2023-02-28T03:50:42;8.40;;;4.70;;
3085;SDS011;52812;48.960;9.108;2023-02-28T03:53:25;8.98;;;4.82;;
3085;SDS011;52812;48.960;9.108;2023-02-28T03:55:57;7.60;;;4.68;;
3085;SDS011;52812;48.960;9.108;2023-02-28T03:58:34;4.90;;;4.00;;
3085;SDS011;52812;48.960;9.108;2023-02-28T04:01:08;10.23;;;5.43;;
3085;SDS011;52812;48.960;9.108;2023-02-28T04:03:41;9.32;;;4.60;;
3085;SDS011;52812;48.960;9.108;2023-02-28T04:06:08;7.67;;;4.50;;
3085;SDS011;52812;48.960;9.108;2023-02-28T04:08:41;5.82;;;4.68;;
3085;SDS011;52812;48.960;9.108;2023-02-28T04:11:08;9.33;;;5.47;;
3085;SDS011;52812;48.960;9.108;2023-02-28T04:13:40;7.55;;;4.90;;
3085;SDS011;52812;48.960;9.108;2023-02-28T04:16:09;6.00;;;4.63;;
3085;SDS011;52812;48.960;9.108;2023-02-28T04:18:38;13.25;;;5.50;;
3085;SDS011;52812;48.960;9.108;2023-02-28T04:21:04;9.77;;;5.55;;
3085;SDS011;52812;48.960;9.108;2023-02-28T04:23:31;9.73;;;5.27;;
3085;SDS011;52812;48.960;9.108;2023-02-28T04:25:56;6.77;;;4.77;;
3085;SDS011;52812;48.960;9.108;2023-02-28T04:28:22;8.60;;;5.23;;
3085;SDS011;52812;48.960;9.108;2023-02-28T04:30:53;7.87;;;5.13;;
3085;SDS011;52812;48.960;9.108;2023-02-28T04:33:20;9.93;;;5.43;;
3085;SDS011;52812;48.960;9.108;2023-02-28T04:35:46;9.40;;;5.50;;
3085;SDS011;52812;48.960;9.108;2023-02-28T04:38:11;10.60;;;5.40;;
3085;SDS011;52812;48.960;9.108;2023-02-28T04:40:37;8.23;;;5.30;;
3085;SDS011;52812;48.960;9.108;2023-02-28T04:43:02;6.67;;;4.60;;
3085;SDS011;52812;48.960;9.108;2023-02-28T04:45:28;6.63;;;4.40;;
3085;SDS011;52812;48.960;9.108;2023-02-28T04:47:57;9.60;;;5.45;;
3085;SDS011;52812;48.960;9.108;2023-02-28T04:50:22;8.40;;;5.50;;
3085;SDS011;52812;48.960;9.108;2023-02-28T04:52:48;9.77;;;5.20;;
3085;SDS011;52812;48.960;9.108;2023-02-28T04:55:14;9.47;;;5.10;;
3085;SDS011;52812;48.960;9.108;2023-02-28T04:57:39;7.90;;;5.00;;
3085;SDS011;52812;48.960;9.108;2023-02-28T05:00:07;9.67;;;5.07;;
3085;SDS011;52812;48.960;9.108;2023-02-28T05:02:36;9.43;;;5.03;;
3085;SDS011;52812;48.960;9.108;2023-02-28T05:05:04;10.63;;;5.20;;
3085;SDS011;52812;48.960;9.108;2023-02-28T05:07:29;8.07;;;5.40;;
3085;SDS011;52812;48.960;9.108;2023-02-28T05:09:55;8.67;;;4.77;;
3085;SDS011;52812;48.960;9.108;2023-02-28T05:12:21;14.17;;;4.97;;
3085;SDS011;52812;48.960;9.108;2023-02-28T05:14:46;7.73;;;5.60;;
3085;SDS011;52812;48.960;9.108;2023-02-28T05:17:12;9.33;;;5.33;;
3085;SDS011;52812;48.960;9.108;2023-02-28T05:19:37;6.97;;;4.40;;
3085;SDS011;52812;48.960;9.108;2023-02-28T05:22:03;7.93;;;4.73;;
3085;SDS011;52812;48.960;9.108;2023-02-28T05:24:28;13.13;;;5.77;;
3085;SDS011;52812;48.960;9.108;2023-02-28T05:26:54;9.50;;;5.23;;
3085;SDS011;52812;48.960;9.108;2023-02-28T05:29:20;9.37;;;5.37;;
3085;SDS011;52812;48.960;9.108;2023-02-28T05:31:46;8.68;;;5.32;;
3085;SDS011;52812;48.960;9.108;2023-02-28T05:34:12;8.00;;;5.60;;
3085;SDS011;52812;48.960;9.108;2023-02-28T05:36:40;8.50;;;5.20;;
3085;SDS011;52812;48.960;9.108;2023-02-28T05:39:06;8.57;;;5.10;;
3085;SDS011;52812;48.960;9.108;2023-02-28T05:41:37;9.40;;;5.03;;
3085;SDS011;52812;48.960;9.108;2023-02-28T05:44:03;12.27;;;5.65;;
3085;SDS011;52812;48.960;9.108;2023-02-28T05:46:29;8.60;;;5.00;;
3085;SDS011;52812;48.960;9.108;2023-02-28T05:48:55;9.87;;;5.60;;
3085;SDS011;52812;48.960;9.108;2023-02-28T05:51:22;11.20;;;6.30;;
3085;SDS011;52812;48.960;9.108;2023-02-28T05:53:48;9.60;;;6.00;;
3085;SDS011;52812;48.960;9.108;2023-02-28T05:56:14;9.07;;;5.60;;
3085;SDS011;52812;48.960;9.108;2023-02-28T05:58:40;10.60;;;6.23;;
3085;SDS011;52812;48.960;9.108;2023-02-28T06:04:01;7.17;;;5.33;;
3085;SDS011;52812;48.960;9.108;2023-02-28T06:06:28;8.80;;;5.13;;
3085;SDS011;52812;48.960;9.108;2023-02-28T06:08:54;9.60;;;5.60;;
3085;SDS011;52812;48.960;9.108;2023-02-28T06:11:20;7.90;;;4.80;;
3085;SDS011;52812;48.960;9.108;2023-02-28T06:13:46;5.97;;;4.90;;
3085;SDS011;52812;48.960;9.108;2023-02-28T06:16:12;7.87;;;5.27;;
3085;SDS011;52812;48.960;9.108;2023-02-28T06:18:38;10.40;;;5.47;;
3085;SDS011;52812;48.960;9.108;2023-02-28T06:21:04;7.13;;;4.97;;
3085;SDS011;52812;48.960;9.108;2023-02-28T06:23:29;9.13;;;5.50;;
3085;SDS011;52812;48.960;9.108;2023-02-28T06:25:55;8.63;;;4.90;;
3085;SDS011;52812;48.960;9.108;2023-02-28T06:28:23;17.70;;;7.07;;
3085;SDS011;52812;48.960;9.108;2023-02-28T06:30:50;9.02;;;4.88;;
3085;SDS011;52812;48.960;9.108;2023-02-28T06:33:15;9.17;;;5.90;;
3085;SDS011;52812;48.960;9.108;2023-02-28T06:35:43;11.43;;;6.60;;
3085;SDS011;52812;48.960;9.108;2023-02-28T06:38:11;10.40;;;6.20;;
3085;SDS011;52812;48.960;9.108;2023-02-28T06:40:36;8.27;;;4.27;;
3085;SDS011;52812;48.960;9.108;2023-02-28T06:43:02;9.50;;;5.47;;
3085;SDS011;52812;48.960;9.108;2023-02-28T06:45:28;11.30;;;5.97;;
3085;SDS011;52812;48.960;9.108;2023-02-28T06:47:54;10.87;;;6.00;;
3085;SDS011;52812;48.960;9.108;2023-02-28T06:50:20;7.97;;;4.73;;
3085;SDS011;52812;48.960;9.108;2023-02-28T06:52:46;11.83;;;6.10;;
3085;SDS011;52812;48.960;9.108;2023-02-28T06:55:12;10.88;;;6.10;;
3085;SDS011;52812;48.960;9.108;2023-02-28T06:57:37;10.80;;;5.90;;
3085;SDS011;52812;48.960;9.108;2023-02-28T07:00:04;10.10;;;6.30;;
3085;SDS011;52812;48.960;9.108;2023-02-28T07:02:32;10.20;;;5.87;;
3085;SDS011;52812;48.960;9.108;2023-02-28T07:04:58;9.13;;;4.67;;
3085;SDS011;52812;48.960;9.108;2023-02-28T07:07:23;7.67;;;4.57;;
3085;SDS011;52812;48.960;9.108;2023-02-28T07:09:49;9.03;;;5.40;;
3085;SDS011;52812;48.960;9.108;2023-02-28T07:12:14;9.13;;;5.60;;
3085;SDS011;52812;48.960;9.108;2023-02-28T07:14:40;11.87;;;5.90;;
3085;SDS011;52812;48.960;9.108;2023-02-28T07:17:06;9.27;;;5.10;;
3085;SDS011;52812;48.960;9.108;2023-02-28T07:19:37;10.93;;;5.93;;
3085;SDS011;52812;48.960;9.108;2023-02-28T07:22:05;8.90;;;5.45;;
3085;SDS011;52812;48.960;9.108;2023-02-28T07:24:32;6.20;;;4.30;;
3085;SDS011;52812;48.960;9.108;2023-02-28T07:26:57;9.90;;;6.07;;
3085;SDS011;52812;48.960;9.108;2023-02-28T07:29:24;8.60;;;5.27;;
3085;SDS011;52812;48.960;9.108;2023-02-28T07:31:50;10.80;;;5.60;;
3085;SDS011;52812;48.960;9.108;2023-02-28T07:34:17;9.77;;;5.97;;
3085;SDS011;52812;48.960;9.108;2023-02-28T07:36:44;13.33;;;6.30;;
3085;SDS011;52812;48.960;9.108;2023-02-28T07:39:09;9.80;;;6.07;;
3085;SDS011;52812;48.960;9.108;2023-02-28T07:41:35;8.00;;;5.80;;
3085;SDS011;52812;48.960;9.108;2023-02-28T07:44:04;11.13;;;6.50;;
3085;SDS011;52812;48.960;9.108;2023-02-28T07:46:30;8.93;;;5.90;;
3085;SDS011;52812;48.960;9.108;2023-02-28T07:49:00;10.57;;;6.73;;
3085;SDS011;52812;48.960;9.108;2023-02-28T07:51:27;10.93;;;6.10;;
3085;SDS011;52812;48.960;9.108;2023-02-28T07:53:54;13.83;;;6.67;;
3085;SDS011;52812;48.960;9.108;2023-02-28T07:56:19;9.77;;;5.80;;
3085;SDS011;52812;48.960;9.108;2023-02-28T07:58:45;10.47;;;6.43;;
3085;SDS011;52812;48.960;9.108;2023-02-28T08:01:10;10.40;;;6.60;;
3085;SDS011;52812;48.960;9.108;2023-02-28T08:03:37;9.00;;;6.00;;
3085;SDS011;52812;48.960;9.108;2023-02-28T08:06:03;14.47;;;6.97;;
3085;SDS011;52812;48.960;9.108;2023-02-28T08:08:30;10.67;;;6.70;;
3085;SDS011;52812;48.960;9.108;2023-02-28T08:11:02;13.97;;;6.83;;
3085;SDS011;52812;48.960;9.108;2023-02-28T08:13:28;12.40;;;6.00;;
3085;SDS011;52812;48.960;9.108;2023-02-28T08:15:55;13.30;;;7.70;;
3085;SDS011;52812;48.960;9.108;2023-02-28T08:18:21;10.95;;;6.50;;
3085;SDS011;52812;48.960;9.108;2023-02-28T08:20:47;11.20;;;6.60;;
3085;SDS011;52812;48.960;9.108;2023-02-28T08:23:13;12.07;;;7.27;;
3085;SDS011;52812;48.960;9.108;2023-02-28T08:25:39;11.30;;;6.70;;
3085;SDS011;52812;48.960;9.108;2023-02-28T08:28:04;10.60;;;5.60;;
3085;SDS011;52812;48.960;9.108;2023-02-28T08:30:30;11.93;;;6.40;;
3085;SDS011;52812;48.960;9.108;2023-02-28T08:32:56;10.13;;;5.77;;
3085;SDS011;52812;48.960;9.108;2023-02-28T08:35:21;11.87;;;7.20;;
3085;SDS011;52812;48.960;9.108;2023-02-28T08:37:48;13.43;;;7.13;;
3085;SDS011;52812;48.960;9.108;2023-02-28T08:40:14;14.43;;;6.70;;
3085;SDS011;52812;48.960;9.108;2023-02-28T08:42:47;11.73;;;6.53;;
3085;SDS011;52812;48.960;9.108;2023-02-28T08:45:13;11.80;;;7.10;;
3085;SDS011;52812;48.960;9.108;2023-02-28T08:47:40;11.30;;;6.80;;
3085;SDS011;52812;48.960;9.108;2023-02-28T08:50:06;10.67;;;6.07;;
3085;SDS011;52812;48.960;9.108;2023-02-28T08:52:33;12.17;;;6.43;;
3085;SDS011;52812;48.960;9.108;2023-02-28T08:54:58;12.93;;;7.20;;
3085;SDS011;52812;48.960;9.108;2023-02-28T08:57:24;13.53;;;7.73;;
3085;SDS011;52812;48.960;9.108;2023-02-28T08:59:53;14.00;;;7.67;;
3085;SDS011;52812;48.960;9.108;2023-02-28T09:02:19;13.77;;;7.80;;
3085;SDS011;52812;48.960;9.108;2023-02-28T09:04:44;20.87;;;7.77;;
3085;SDS011;52812;48.960;9.108;2023-02-28T09:07:10;16.97;;;8.30;;
3085;SDS011;52812;48.960;9.108;2023-02-28T09:09:39;13.67;;;7.13;;
3085;SDS011;52812;48.960;9.108;2023-02-28T09:12:18;12.10;;;7.53;;
3085;SDS011;52812;48.960;9.108;2023-02-28T09:17:48;14.37;;;8.37;;
3085;SDS011;52812;48.960;9.108;2023-02-28T09:20:25;10.10;;;7.00;;
3085;SDS011;52812;48.960;9.108;2023-02-28T09:22:51;14.80;;;7.57;;
3085;SDS011;52812;48.960;9.108;2023-02-28T09:25:17;10.80;;;6.53;;
3085;SDS011;52812;48.960;9.108;2023-02-28T09:27:42;14.90;;;7.30;;
3085;SDS011;52812;48.960;9.108;2023-02-28T09:30:08;14.63;;;8.43;;
3085;SDS011;52812;48.960;9.108;2023-02-28T09:32:34;14.30;;;7.60;;
3085;SDS011;52812;48.960;9.108;2023-02-28T09:34:59;41.83;;;16.60;;
3085;SDS011;52812;48.960;9.108;2023-02-28T09:37:25;14.50;;;9.90;;
3085;SDS011;52812;48.960;9.108;2023-02-28T09:39:55;15.40;;;7.93;;
3085;SDS011;52812;48.960;9.108;2023-02-28T09:42:23;14.73;;;8.73;;
3085;SDS011;52812;48.960;9.108;2023-02-28T09:44:56;11.37;;;6.87;;
3085;SDS011;52812;48.960;9.108;2023-02-28T09:47:33;17.23;;;8.33;;
3085;SDS011;52812;48.960;9.108;2023-02-28T09:50:17;14.43;;;7.57;;
3085;SDS011;52812;48.960;9.108;2023-02-28T09:52:51;14.97;;;8.13;;
3085;SDS011;52812;48.960;9.108;2023-02-28T09:55:20;12.00;;;7.13;;
3085;SDS011;52812;48.960;9.108;2023-02-28T09:57:53;11.90;;;7.10;;
3085;SDS011;52812;48.960;9.108;2023-02-28T10:00:25;13.93;;;7.50;;
3085;SDS011;52812;48.960;9.108;2023-02-28T10:03:24;9.50;;;6.57;;
3085;SDS011;52812;48.960;9.108;2023-02-28T10:09:08;17.17;;;7.93;;
3085;SDS011;52812;48.960;9.108;2023-02-28T10:11:32;11.90;;;7.90;;
3085;SDS011;52812;48.960;9.108;2023-02-28T10:14:11;12.57;;;7.93;;
3085;SDS011;52812;48.960;9.108;2023-02-28T10:16:39;14.73;;;7.83;;
3085;SDS011;52812;48.960;9.108;2023-02-28T10:21:49;12.17;;;7.30;;
3085;SDS011;52812;48.960;9.108;2023-02-28T10:24:35;12.10;;;7.90;;
3085;SDS011;52812;48.960;9.108;2023-02-28T10:27:06;14.50;;;8.43;;
3085;SDS011;52812;48.960;9.108;2023-02-28T10:29:44;13.17;;;7.00;;
3085;SDS011;52812;48.960;9.108;2023-02-28T10:32:18;15.20;;;8.30;;
3085;SDS011;52812;48.960;9.108;2023-02-28T10:34:55;15.23;;;8.27;;
3085;SDS011;52812;48.960;9.108;2023-02-28T10:37:25;13.10;;;7.57;;
3085;SDS011;52812;48.960;9.108;2023-02-28T10:39:52;14.97;;;8.00;;
3085;SDS011;52812;48.960;9.108;2023-02-28T10:42:22;16.60;;;8.77;;
3085;SDS011;52812;48.960;9.108;2023-02-28T10:45:04;15.93;;;8.60;;
3085;SDS011;52812;48.960;9.108;2023-02-28T10:47:31;15.10;;;8.03;;
3085;SDS011;52812;48.960;9.108;2023-02-28T10:49:59;16.00;;;8.50;;
3085;SDS011;52812;48.960;9.108;2023-02-28T10:52:35;13.60;;;7.70;;
3085;SDS011;52812;48.960;9.108;2023-02-28T10:55:15;17.23;;;8.90;;
3085;SDS011;52812;48.960;9.108;2023-02-28T10:57:46;15.30;;;7.50;;
3085;SDS011;52812;48.960;9.108;2023-02-28T11:00:14;13.10;;;7.77;;
3085;SDS011;52812;48.960;9.108;2023-02-28T11:02:46;12.90;;;7.13;;
3085;SDS011;52812;48.960;9.108;2023-02-28T11:05:29;13.03;;;8.17;;
3085;SDS011;52812;48.960;9.108;2023-02-28T11:08:04;12.60;;;7.63;;
3085;SDS011;52812;48.960;9.108;2023-02-28T11:10:36;12.37;;;7.50;;
3085;SDS011;52812;48.960;9.108;2023-02-28T11:13:01;13.37;;;7.57;;
3085;SDS011;52812;48.960;9.108;2023-02-28T11:15:37;13.60;;;8.10;;
3085;SDS011;52812;48.960;9.108;2023-02-28T11:18:23;14.60;;;7.80;;
3085;SDS011;52812;48.960;9.108;2023-02-28T11:20:54;14.00;;;8.27;;
3085;SDS011;52812;48.960;9.108;2023-02-28T11:23:22;14.27;;;8.17;;
3085;SDS011;52812;48.960;9.108;2023-02-28T11:25:52;13.27;;;7.90;;
3085;SDS011;52812;48.960;9.108;2023-02-28T11:28:32;17.67;;;8.33;;
3085;SDS011;52812;48.960;9.108;2023-02-28T11:33:49;15.90;;;8.13;;
3085;SDS011;52812;48.960;9.108;2023-02-28T11:38:54;11.63;;;8.23;;
3085;SDS011;52812;48.960;9.108;2023-02-28T11:50:08;14.00;;;8.27;;
3085;SDS011;52812;48.960;9.108;2023-02-28T11:52:28;12.20;;;7.70;;
3085;SDS011;52812;48.960;9.108;2023-02-28T11:57:42;15.03;;;8.17;;
3085;SDS011;52812;48.960;9.108;2023-02-28T12:05:46;11.37;;;7.23;;
3085;SDS011;52812;48.960;9.108;2023-02-28T12:14:25;13.47;;;8.13;;
3085;SDS011;52812;48.960;9.108;2023-02-28T12:28:03;12.70;;;8.10;;
3085;SDS011;52812;48.960;9.108;2023-02-28T12:30:33;14.60;;;7.67;;
3085;SDS011;52812;48.960;9.108;2023-02-28T12:33:09;14.50;;;8.43;;
3085;SDS011;52812;48.960;9.108;2023-02-28T12:35:58;13.50;;;7.83;;
3085;SDS011;52812;48.960;9.108;2023-02-28T12:38:27;13.17;;;7.60;;
3085;SDS011;52812;48.960;9.108;2023-02-28T12:41:03;13.30;;;8.43;;
3085;SDS011;52812;48.960;9.108;2023-02-28T12:43:38;15.37;;;8.03;;
3085;SDS011;52812;48.960;9.108;2023-02-28T12:46:10;12.97;;;8.80;;
3085;SDS011;52812;48.960;9.108;2023-02-28T12:48:41;14.33;;;7.77;;
3085;SDS011;52812;48.960;9.108;2023-02-28T12:51:09;13.30;;;6.83;;
3085;SDS011;52812;48.960;9.108;2023-02-28T12:58:56;12.70;;;8.03;;
3085;SDS011;52812;48.960;9.108;2023-02-28T13:04:44;16.30;;;8.57;;
3085;SDS011;52812;48.960;9.108;2023-02-28T13:10:23;13.33;;;7.57;;
3085;SDS011;52812;48.960;9.108;2023-02-28T13:12:52;14.10;;;7.20;;
3085;SDS011;52812;48.960;9.108;2023-02-28T13:17:53;15.23;;;7.87;;
3085;SDS011;52812;48.960;9.108;2023-02-28T13:20:21;13.33;;;8.10;;
3085;SDS011;52812;48.960;9.108;2023-02-28T13:22:51;16.33;;;8.50;;
3085;SDS011;52812;48.960;9.108;2023-02-28T13:27:47;12.67;;;7.50;;
3085;SDS011;52812;48.960;9.108;2023-02-28T13:35:44;13.97;;;8.00;;
3085;SDS011;52812;48.960;9.108;2023-02-28T13:41:26;12.27;;;8.03;;
3085;SDS011;52812;48.960;9.108;2023-02-28T13:46:31;14.83;;;8.53;;
3085;SDS011;52812;48.960;9.108;2023-02-28T13:51:50;14.57;;;8.80;;
3085;SDS011;52812;48.960;9.108;2023-02-28T14:06:38;15.43;;;8.90;;
3085;SDS011;52812;48.960;9.108;2023-02-28T14:11:42;11.20;;;7.67;;
3085;SDS011;52812;48.960;9.108;2023-02-28T14:14:09;14.37;;;8.70;;
3085;SDS011;52812;48.960;9.108;2023-02-28T14:17:01;11.73;;;7.90;;
3085;SDS011;52812;48.960;9.108;2023-02-28T14:19:29;17.23;;;8.77;;
3085;SDS011;52812;48.960;9.108;2023-02-28T14:24:50;13.70;;;8.10;;
3085;SDS011;52812;48.960;9.108;2023-02-28T14:38:33;16.10;;;8.30;;
3085;SDS011;52812;48.960;9.108;2023-02-28T14:41:06;15.53;;;8.77;;
3085;SDS011;52812;48.960;9.108;2023-02-28T14:43:47;13.77;;;8.30;;
3085;SDS011;52812;48.960;9.108;2023-02-28T14:46:18;15.20;;;8.83;;
3085;SDS011;52812;48.960;9.108;2023-02-28T14:48:45;17.37;;;9.20;;
3085;SDS011;52812;48.960;9.108;2023-02-28T14:51:19;17.13;;;8.30;;
3085;SDS011;52812;48.960;9.108;2023-02-28T14:53:48;13.90;;;8.00;;
3085;SDS011;52812;48.960;9.108;2023-02-28T14:56:20;15.20;;;8.90;;
3085;SDS011;52812;48.960;9.108;2023-02-28T14:58:53;14.60;;;8.93;;
3085;SDS011;52812;48.960;9.108;2023-02-28T15:01:21;16.40;;;8.73;;
3085;SDS011;52812;48.960;9.108;2023-02-28T15:03:48;15.67;;;8.40;;
3085;SDS011;52812;48.960;9.108;2023-02-28T15:06:23;15.10;;;8.53;;
3085;SDS011;52812;48.960;9.108;2023-02-28T15:09:06;12.80;;;8.87;;
3085;SDS011;52812;48.960;9.108;2023-02-28T15:11:32;16.43;;;9.00;;
3085;SDS011;52812;48.960;9.108;2023-02-28T15:13:58;15.77;;;8.93;;
3085;SDS011;52812;48.960;9.108;2023-02-28T15:16:26;14.53;;;8.53;;
3085;SDS011;52812;48.960;9.108;2023-02-28T15:19:00;17.60;;;8.97;;
3085;SDS011;52812;48.960;9.108;2023-02-28T15:26:41;12.70;;;8.97;;
3085;SDS011;52812;48.960;9.108;2023-02-28T15:29:15;17.10;;;8.80;;
3085;SDS011;52812;48.960;9.108;2023-02-28T15:31:45;13.17;;;8.87;;
3085;SDS011;52812;48.960;9.108;2023-02-28T15:34:21;18.07;;;9.30;;
3085;SDS011;52812;48.960;9.108;2023-02-28T15:37:24;15.93;;;8.63;;
3085;SDS011;52812;48.960;9.108;2023-02-28T15:39:51;14.47;;;8.40;;
3085;SDS011;52812;48.960;9.108;2023-02-28T15:42:19;13.70;;;8.77;;
3085;SDS011;52812;48.960;9.108;2023-02-28T15:44:46;16.87;;;9.37;;
3085;SDS011;52812;48.960;9.108;2023-02-28T15:49:47;16.90;;;9.53;;
3085;SDS011;52812;48.960;9.108;2023-02-28T15:52:23;13.27;;;8.23;;
3085;SDS011;52812;48.960;9.108;2023-02-28T15:54:53;18.50;;;9.17;;
3085;SDS011;52812;48.960;9.108;2023-02-28T15:57:23;14.03;;;8.63;;
3085;SDS011;52812;48.960;9.108;2023-02-28T15:59:55;16.17;;;8.83;;
3085;SDS011;52812;48.960;9.108;2023-02-28T16:02:33;15.40;;;8.47;;
3085;SDS011;52812;48.960;9.108;2023-02-28T16:07:27;13.07;;;7.97;;
3085;SDS011;52812;48.960;9.108;2023-02-28T16:09:53;14.83;;;9.20;;
3085;SDS011;52812;48.960;9.108;2023-02-28T16:12:20;14.30;;;8.20;;
3085;SDS011;52812;48.960;9.108;2023-02-28T16:14:49;17.23;;;8.90;;
3085;SDS011;52812;48.960;9.108;2023-02-28T16:17:28;17.20;;;8.67;;
3085;SDS011;52812;48.960;9.108;2023-02-28T16:19:56;16.30;;;8.70;;
3085;SDS011;52812;48.960;9.108;2023-02-28T16:22:23;17.57;;;8.83;;
3085;SDS011;52812;48.960;9.108;2023-02-28T16:24:48;17.93;;;9.23;;
3085;SDS011;52812;48.960;9.108;2023-02-28T16:27:16;14.40;;;8.37;;
3085;SDS011;52812;48.960;9.108;2023-02-28T16:29:47;16.73;;;9.00;;
3085;SDS011;52812;48.960;9.108;2023-02-28T16:32:14;15.20;;;8.37;;
3085;SDS011;52812;48.960;9.108;2023-02-28T16:34:41;14.50;;;8.53;;
3085;SDS011;52812;48.960;9.108;2023-02-28T16:37:10;18.37;;;9.03;;
3085;SDS011;52812;48.960;9.108;2023-02-28T16:39:37;18.57;;;9.13;;
3085;SDS011;52812;48.960;9.108;2023-02-28T16:42:03;13.47;;;7.83;;
3085;SDS011;52812;48.960;9.108;2023-02-28T16:44:33;15.83;;;8.03;;
3085;SDS011;52812;48.960;9.108;2023-02-28T16:47:01;17.13;;;8.53;;
3085;SDS011;52812;48.960;9.108;2023-02-28T16:49:28;14.10;;;8.53;;
3085;SDS011;52812;48.960;9.108;2023-02-28T16:51:54;12.67;;;8.43;;
3085;SDS011;52812;48.960;9.108;2023-02-28T16:54:19;15.10;;;8.60;;
3085;SDS011;52812;48.960;9.108;2023-02-28T16:56:45;16.60;;;8.93;;
3085;SDS011;52812;48.960;9.108;2023-02-28T16:59:13;19.20;;;9.30;;
3085;SDS011;52812;48.960;9.108;2023-02-28T17:01:43;13.13;;;8.00;;
3085;SDS011;52812;48.960;9.108;2023-02-28T17:04:08;19.00;;;8.63;;
3085;SDS011;52812;48.960;9.108;2023-02-28T17:06:36;17.17;;;8.97;;
3085;SDS011;52812;48.960;9.108;2023-02-28T17:09:02;17.70;;;9.07;;
3085;SDS011;52812;48.960;9.108;2023-02-28T17:11:27;15.70;;;9.27;;
3085;SDS011;52812;48.960;9.108;2023-02-28T17:13:53;16.03;;;8.67;;
3085;SDS011;52812;48.960;9.108;2023-02-28T17:16:29;15.40;;;8.13;;
3085;SDS011;52812;48.960;9.108;2023-02-28T17:18:58;15.00;;;8.93;;
3085;SDS011;52812;48.960;9.108;2023-02-28T17:21:26;15.63;;;8.17;;
3085;SDS011;52812;48.960;9.108;2023-02-28T17:23:52;16.10;;;9.10;;
3085;SDS011;52812;48.960;9.108;2023-02-28T17:26:18;20.03;;;9.30;;
3085;SDS011;52812;48.960;9.108;2023-02-28T17:28:46;15.83;;;8.77;;
3085;SDS011;52812;48.960;9.108;2023-02-28T17:31:12;17.27;;;9.00;;
3085;SDS011;52812;48.960;9.108;2023-02-28T17:33:38;15.70;;;8.50;;
3085;SDS011;52812;48.960;9.108;2023-02-28T17:36:04;16.87;;;8.70;;
3085;SDS011;52812;48.960;9.108;2023-02-28T17:38:30;15.57;;;9.03;;
3085;SDS011;52812;48.960;9.108;2023-02-28T17:40:55;13.37;;;9.17;;
3085;SDS011;52812;48.960;9.108;2023-02-28T17:43:23;18.40;;;8.10;;